sensor_id;sensor_type;location;lat;lon;timestamp;temperature;humidity
51035;DHT22;37062;52.546;13.230;2024-01-10T00:00:42;-5.30;99.90
51035;DHT22;37062;52.546;13.230;2024-01-10T00:03:11;-5.20;99.90
51035;DHT22;37062;52.546;13.230;2024-01-10T00:05:39;-5.20;99.90
51035;DHT22;37062;52.546;13.230;2024-01-10T00:08:08;-5.10;99.90
51035;DHT22;37062;52.546;13.230;2024-01-10T00:10:37;-5.20;99.90
51035;DHT22;37062;52.546;13.230;2024-01-10T00:13:05;-5.40;99.90
51035;DHT22;37062;52.546;13.230;2024-01-10T00:15:33;-5.40;99.90
51035;DHT22;37062;52.546;13.230;2024-01-10T00:18:02;-5.50;99.90
51035;DHT22;37062;52.546;13.230;2024-01-10T00:20:31;-5.50;99.90
51035;DHT22;37062;52.546;13.230;2024-01-10T00:22:59;-5.40;99.90
51035;DHT22;37062;52.546;13.230;2024-01-10T00:25:28;-5.30;99.90
51035;DHT22;37062;52.546;13.230;2024-01-10T00:27:57;-5.30;99.90
51035;DHT22;37062;52.546;13.230;2024-01-10T00:30:25;-5.30;99.90
51035;DHT22;37062;52.546;13.230;2024-01-10T00:32:54;-5.40;99.90
51035;DHT22;37062;52.546;13.230;2024-01-10T00:35:22;-5.60;99.90
51035;DHT22;37062;52.546;13.230;2024-01-10T00:37:50;-5.70;99.90
51035;DHT22;37062;52.546;13.230;2024-01-10T00:40:19;-5.70;99.90
51035;DHT22;37062;52.546;13.230;2024-01-10T00:42:48;-5.70;99.90
51035;DHT22;37062;52.546;13.230;2024-01-10T00:45:17;-5.70;99.90
51035;DHT22;37062;52.546;13.230;2024-01-10T00:47:45;-5.50;99.90
51035;DHT22;37062;52.546;13.230;2024-01-10T00:50:13;-5.40;99.90
51035;DHT22;37062;52.546;13.230;2024-01-10T00:52:41;-5.30;99.90
51035;DHT22;37062;52.546;13.230;2024-01-10T00:55:10;-5.30;99.90
51035;DHT22;37062;52.546;13.230;2024-01-10T00:57:38;-5.30;99.90
51035;DHT22;37062;52.546;13.230;2024-01-10T01:00:09;-5.60;99.90
51035;DHT22;37062;52.546;13.230;2024-01-10T01:02:38;-5.70;99.90
51035;DHT22;37062;52.546;13.230;2024-01-10T01:05:07;-5.80;99.90
51035;DHT22;37062;52.546;13.230;2024-01-10T01:07:36;-5.70;99.90
51035;DHT22;37062;52.546;13.230;2024-01-10T01:10:05;-5.60;99.90
51035;DHT22;37062;52.546;13.230;2024-01-10T01:12:35;-5.50;99.90
51035;DHT22;37062;52.546;13.230;2024-01-10T01:15:05;-5.40;99.90
51035;DHT22;37062;52.546;13.230;2024-01-10T01:17:37;-5.40;99.90
51035;DHT22;37062;52.546;13.230;2024-01-10T01:20:07;-5.30;99.90
51035;DHT22;37062;52.546;13.230;2024-01-10T01:22:37;-5.30;99.90
51035;DHT22;37062;52.546;13.230;2024-01-10T01:25:05;-5.30;99.90
51035;DHT22;37062;52.546;13.230;2024-01-10T01:27:34;-5.30;99.90
51035;DHT22;37062;52.546;13.230;2024-01-10T01:30:03;-5.30;99.90
51035;DHT22;37062;52.546;13.230;2024-01-10T01:32:31;-5.20;99.90
51035;DHT22;37062;52.546;13.230;2024-01-10T01:35:01;-5.20;99.90
51035;DHT22;37062;52.546;13.230;2024-01-10T01:37:30;-5.30;99.90
51035;DHT22;37062;52.546;13.230;2024-01-10T01:39:58;-5.30;99.90
51035;DHT22;37062;52.546;13.230;2024-01-10T01:42:26;-5.30;99.90
51035;DHT22;37062;52.546;13.230;2024-01-10T01:44:55;-5.30;99.90
51035;DHT22;37062;52.546;13.230;2024-01-10T01:47:23;-5.20;99.90
51035;DHT22;37062;52.546;13.230;2024-01-10T01:49:53;-5.20;99.90
51035;DHT22;37062;52.546;13.230;2024-01-10T01:52:23;-5.20;99.90
51035;DHT22;37062;52.546;13.230;2024-01-10T01:54:52;-5.20;99.90
51035;DHT22;37062;52.546;13.230;2024-01-10T01:57:20;-5.20;99.90
51035;DHT22;37062;52.546;13.230;2024-01-10T01:59:49;-5.20;99.90
51035;DHT22;37062;52.546;13.230;2024-01-10T02:02:18;-5.20;99.90
51035;DHT22;37062;52.546;13.230;2024-01-10T02:04:47;-5.20;99.90
51035;DHT22;37062;52.546;13.230;2024-01-10T02:07:15;-5.20;99.90
51035;DHT22;37062;52.546;13.230;2024-01-10T02:09:49;-5.20;99.90
51035;DHT22;37062;52.546;13.230;2024-01-10T02:12:21;-5.20;99.90
51035;DHT22;37062;52.546;13.230;2024-01-10T02:14:49;-5.20;99.90
51035;DHT22;37062;52.546;13.230;2024-01-10T02:17:17;-5.30;99.90
51035;DHT22;37062;52.546;13.230;2024-01-10T02:19:46;-5.30;99.90
51035;DHT22;37062;52.546;13.230;2024-01-10T02:22:14;-5.30;99.90
51035;DHT22;37062;52.546;13.230;2024-01-10T02:24:42;-5.30;99.90
51035;DHT22;37062;52.546;13.230;2024-01-10T02:27:15;-5.40;99.90
51035;DHT22;37062;52.546;13.230;2024-01-10T02:29:49;-5.30;99.90
51035;DHT22;37062;52.546;13.230;2024-01-10T02:32:17;-5.30;99.90
51035;DHT22;37062;52.546;13.230;2024-01-10T02:34:45;-5.40;99.90
51035;DHT22;37062;52.546;13.230;2024-01-10T02:37:14;-5.30;99.90
51035;DHT22;37062;52.546;13.230;2024-01-10T02:39:42;-5.30;99.90
51035;DHT22;37062;52.546;13.230;2024-01-10T02:42:11;-5.30;99.90
51035;DHT22;37062;52.546;13.230;2024-01-10T02:44:40;-5.30;99.90
51035;DHT22;37062;52.546;13.230;2024-01-10T02:47:09;-5.20;99.90
51035;DHT22;37062;52.546;13.230;2024-01-10T02:49:38;-5.20;99.90
51035;DHT22;37062;52.546;13.230;2024-01-10T02:52:06;-5.20;99.90
51035;DHT22;37062;52.546;13.230;2024-01-10T02:54:35;-5.20;99.90
51035;DHT22;37062;52.546;13.230;2024-01-10T02:57:03;-5.20;99.90
51035;DHT22;37062;52.546;13.230;2024-01-10T02:59:31;-5.20;99.90
51035;DHT22;37062;52.546;13.230;2024-01-10T03:02:01;-5.20;99.90
51035;DHT22;37062;52.546;13.230;2024-01-10T03:04:30;-5.20;99.90
51035;DHT22;37062;52.546;13.230;2024-01-10T03:06:58;-5.30;99.90
51035;DHT22;37062;52.546;13.230;2024-01-10T03:09:27;-5.40;99.90
51035;DHT22;37062;52.546;13.230;2024-01-10T03:11:55;-5.50;99.90
51035;DHT22;37062;52.546;13.230;2024-01-10T03:14:23;-5.50;99.90
51035;DHT22;37062;52.546;13.230;2024-01-10T03:16:52;-5.50;99.90
51035;DHT22;37062;52.546;13.230;2024-01-10T03:19:25;-5.70;99.90
51035;DHT22;37062;52.546;13.230;2024-01-10T03:21:53;-6.00;99.90
51035;DHT22;37062;52.546;13.230;2024-01-10T03:24:24;-6.10;99.90
51035;DHT22;37062;52.546;13.230;2024-01-10T03:26:54;-6.10;99.90
51035;DHT22;37062;52.546;13.230;2024-01-10T03:29:22;-6.10;99.90
51035;DHT22;37062;52.546;13.230;2024-01-10T03:31:50;-6.00;99.90
51035;DHT22;37062;52.546;13.230;2024-01-10T03:34:19;-6.00;99.90
51035;DHT22;37062;52.546;13.230;2024-01-10T03:36:48;-6.10;99.90
51035;DHT22;37062;52.546;13.230;2024-01-10T03:39:16;-6.20;99.90
51035;DHT22;37062;52.546;13.230;2024-01-10T03:41:45;-6.30;99.90
51035;DHT22;37062;52.546;13.230;2024-01-10T03:44:13;-6.30;99.90
51035;DHT22;37062;52.546;13.230;2024-01-10T03:46:41;-6.20;99.90
51035;DHT22;37062;52.546;13.230;2024-01-10T03:49:09;-6.10;99.90
51035;DHT22;37062;52.546;13.230;2024-01-10T03:51:38;-6.00;99.90
51035;DHT22;37062;52.546;13.230;2024-01-10T03:54:09;-5.90;99.90
51035;DHT22;37062;52.546;13.230;2024-01-10T03:56:37;-5.80;99.90
51035;DHT22;37062;52.546;13.230;2024-01-10T03:59:05;-5.80;99.90
51035;DHT22;37062;52.546;13.230;2024-01-10T04:01:36;-5.80;99.90
51035;DHT22;37062;52.546;13.230;2024-01-10T04:04:06;-5.70;99.90
51035;DHT22;37062;52.546;13.230;2024-01-10T04:06:34;-5.70;99.90
51035;DHT22;37062;52.546;13.230;2024-01-10T04:09:02;-5.70;99.90
51035;DHT22;37062;52.546;13.230;2024-01-10T04:11:32;-5.70;99.90
51035;DHT22;37062;52.546;13.230;2024-01-10T04:14:00;-5.70;99.90
51035;DHT22;37062;52.546;13.230;2024-01-10T04:16:29;-5.80;99.90
51035;DHT22;37062;52.546;13.230;2024-01-10T04:18:57;-5.80;99.90
51035;DHT22;37062;52.546;13.230;2024-01-10T04:21:25;-5.80;99.90
51035;DHT22;37062;52.546;13.230;2024-01-10T04:23:54;-5.90;99.90
51035;DHT22;37062;52.546;13.230;2024-01-10T04:26:22;-5.90;99.90
51035;DHT22;37062;52.546;13.230;2024-01-10T04:28:52;-5.90;99.90
51035;DHT22;37062;52.546;13.230;2024-01-10T04:31:20;-5.80;99.90
51035;DHT22;37062;52.546;13.230;2024-01-10T04:33:49;-5.90;99.90
51035;DHT22;37062;52.546;13.230;2024-01-10T04:36:17;-6.00;99.90
51035;DHT22;37062;52.546;13.230;2024-01-10T04:38:45;-5.90;99.90
51035;DHT22;37062;52.546;13.230;2024-01-10T04:41:13;-5.90;99.90
51035;DHT22;37062;52.546;13.230;2024-01-10T04:43:42;-5.80;99.90
51035;DHT22;37062;52.546;13.230;2024-01-10T04:46:12;-5.70;99.90
51035;DHT22;37062;52.546;13.230;2024-01-10T04:48:40;-5.60;99.90
51035;DHT22;37062;52.546;13.230;2024-01-10T04:51:08;-5.60;99.90
51035;DHT22;37062;52.546;13.230;2024-01-10T04:53:37;-5.50;99.90
51035;DHT22;37062;52.546;13.230;2024-01-10T04:56:06;-5.50;99.90
51035;DHT22;37062;52.546;13.230;2024-01-10T04:58:34;-5.60;99.90
51035;DHT22;37062;52.546;13.230;2024-01-10T05:01:04;-5.50;99.90
51035;DHT22;37062;52.546;13.230;2024-01-10T05:03:34;-5.50;99.90
51035;DHT22;37062;52.546;13.230;2024-01-10T05:06:02;-5.50;99.90
51035;DHT22;37062;52.546;13.230;2024-01-10T05:08:32;-5.50;99.90
51035;DHT22;37062;52.546;13.230;2024-01-10T05:11:00;-5.60;99.90
51035;DHT22;37062;52.546;13.230;2024-01-10T05:13:29;-5.60;99.90
51035;DHT22;37062;52.546;13.230;2024-01-10T05:15:57;-5.70;99.90
51035;DHT22;37062;52.546;13.230;2024-01-10T05:18:25;-5.80;99.90
51035;DHT22;37062;52.546;13.230;2024-01-10T05:20:55;-5.90;99.90
51035;DHT22;37062;52.546;13.230;2024-01-10T05:23:27;-6.00;99.90
51035;DHT22;37062;52.546;13.230;2024-01-10T05:25:56;-6.10;99.90
51035;DHT22;37062;52.546;13.230;2024-01-10T05:28:25;-6.10;99.90
51035;DHT22;37062;52.546;13.230;2024-01-10T05:30:53;-6.10;99.90
51035;DHT22;37062;52.546;13.230;2024-01-10T05:33:22;-6.00;99.90
51035;DHT22;37062;52.546;13.230;2024-01-10T05:35:50;-5.90;99.90
51035;DHT22;37062;52.546;13.230;2024-01-10T05:38:20;-5.80;99.90
51035;DHT22;37062;52.546;13.230;2024-01-10T05:40:48;-5.70;99.90
51035;DHT22;37062;52.546;13.230;2024-01-10T05:43:18;-5.70;99.90
51035;DHT22;37062;52.546;13.230;2024-01-10T05:45:48;-5.80;99.90
51035;DHT22;37062;52.546;13.230;2024-01-10T05:48:16;-5.80;99.90
51035;DHT22;37062;52.546;13.230;2024-01-10T05:50:45;-5.90;99.90
51035;DHT22;37062;52.546;13.230;2024-01-10T05:53:13;-5.90;99.90
51035;DHT22;37062;52.546;13.230;2024-01-10T05:55:48;-6.10;99.90
51035;DHT22;37062;52.546;13.230;2024-01-10T05:58:16;-6.10;99.90
51035;DHT22;37062;52.546;13.230;2024-01-10T06:00:45;-6.00;99.90
51035;DHT22;37062;52.546;13.230;2024-01-10T06:03:14;-5.90;99.90
51035;DHT22;37062;52.546;13.230;2024-01-10T06:05:42;-5.90;99.90
51035;DHT22;37062;52.546;13.230;2024-01-10T06:08:14;-5.90;99.90
51035;DHT22;37062;52.546;13.230;2024-01-10T06:10:42;-5.90;99.90
51035;DHT22;37062;52.546;13.230;2024-01-10T06:13:12;-6.00;99.90
51035;DHT22;37062;52.546;13.230;2024-01-10T06:15:40;-6.00;99.90
51035;DHT22;37062;52.546;13.230;2024-01-10T06:18:09;-6.00;99.90
51035;DHT22;37062;52.546;13.230;2024-01-10T06:20:41;-5.90;99.90
51035;DHT22;37062;52.546;13.230;2024-01-10T06:23:09;-5.80;99.90
51035;DHT22;37062;52.546;13.230;2024-01-10T06:25:37;-5.80;99.90
51035;DHT22;37062;52.546;13.230;2024-01-10T06:28:06;-5.80;99.90
51035;DHT22;37062;52.546;13.230;2024-01-10T06:30:36;-5.80;99.90
51035;DHT22;37062;52.546;13.230;2024-01-10T06:33:04;-5.80;99.90
51035;DHT22;37062;52.546;13.230;2024-01-10T06:35:34;-5.80;99.90
51035;DHT22;37062;52.546;13.230;2024-01-10T06:38:04;-5.90;99.90
51035;DHT22;37062;52.546;13.230;2024-01-10T06:40:36;-5.80;99.90
51035;DHT22;37062;52.546;13.230;2024-01-10T06:43:04;-5.80;99.90
51035;DHT22;37062;52.546;13.230;2024-01-10T06:45:36;-5.70;99.90
51035;DHT22;37062;52.546;13.230;2024-01-10T06:48:05;-5.70;99.90
51035;DHT22;37062;52.546;13.230;2024-01-10T06:50:34;-5.70;99.90
51035;DHT22;37062;52.546;13.230;2024-01-10T06:53:03;-5.70;99.90
51035;DHT22;37062;52.546;13.230;2024-01-10T06:55:31;-5.80;99.90
51035;DHT22;37062;52.546;13.230;2024-01-10T06:57:59;-5.80;99.90
51035;DHT22;37062;52.546;13.230;2024-01-10T07:00:27;-5.80;99.90
51035;DHT22;37062;52.546;13.230;2024-01-10T07:03:00;-5.70;99.90
51035;DHT22;37062;52.546;13.230;2024-01-10T07:05:29;-5.70;99.90
51035;DHT22;37062;52.546;13.230;2024-01-10T07:07:58;-5.80;99.90
51035;DHT22;37062;52.546;13.230;2024-01-10T07:10:30;-5.80;99.90
51035;DHT22;37062;52.546;13.230;2024-01-10T07:12:58;-5.90;99.90
51035;DHT22;37062;52.546;13.230;2024-01-10T07:15:26;-6.00;99.90
51035;DHT22;37062;52.546;13.230;2024-01-10T07:17:57;-6.00;99.90
51035;DHT22;37062;52.546;13.230;2024-01-10T07:20:26;-6.00;99.90
51035;DHT22;37062;52.546;13.230;2024-01-10T07:22:54;-6.00;99.90
51035;DHT22;37062;52.546;13.230;2024-01-10T07:25:23;-6.00;99.90
51035;DHT22;37062;52.546;13.230;2024-01-10T07:27:52;-6.00;99.90
51035;DHT22;37062;52.546;13.230;2024-01-10T07:30:21;-5.90;99.90
51035;DHT22;37062;52.546;13.230;2024-01-10T07:32:52;-5.80;99.90
51035;DHT22;37062;52.546;13.230;2024-01-10T07:35:25;-5.70;99.90
51035;DHT22;37062;52.546;13.230;2024-01-10T07:37:53;-5.70;99.90
51035;DHT22;37062;52.546;13.230;2024-01-10T07:40:22;-5.70;99.90
51035;DHT22;37062;52.546;13.230;2024-01-10T07:42:51;-5.60;99.90
51035;DHT22;37062;52.546;13.230;2024-01-10T07:45:19;-5.50;99.90
51035;DHT22;37062;52.546;13.230;2024-01-10T07:47:47;-5.50;99.90
51035;DHT22;37062;52.546;13.230;2024-01-10T07:50:16;-5.40;99.90
51035;DHT22;37062;52.546;13.230;2024-01-10T07:52:50;-5.40;99.90
51035;DHT22;37062;52.546;13.230;2024-01-10T07:55:21;-5.30;99.90
51035;DHT22;37062;52.546;13.230;2024-01-10T07:57:50;-5.30;99.90
51035;DHT22;37062;52.546;13.230;2024-01-10T08:00:19;-5.30;99.90
51035;DHT22;37062;52.546;13.230;2024-01-10T08:03:11;-5.30;99.90
51035;DHT22;37062;52.546;13.230;2024-01-10T08:06:04;-5.20;99.90
51035;DHT22;37062;52.546;13.230;2024-01-10T08:08:47;-5.20;99.90
51035;DHT22;37062;52.546;13.230;2024-01-10T08:11:16;-5.20;99.90
51035;DHT22;37062;52.546;13.230;2024-01-10T08:13:45;-5.20;99.90
51035;DHT22;37062;52.546;13.230;2024-01-10T08:16:13;-5.10;99.90
51035;DHT22;37062;52.546;13.230;2024-01-10T08:18:41;-5.00;99.90
51035;DHT22;37062;52.546;13.230;2024-01-10T08:21:11;-4.90;99.90
51035;DHT22;37062;52.546;13.230;2024-01-10T08:23:40;-4.80;99.90
51035;DHT22;37062;52.546;13.230;2024-01-10T08:26:09;-4.70;99.90
51035;DHT22;37062;52.546;13.230;2024-01-10T08:28:38;-4.60;99.90
51035;DHT22;37062;52.546;13.230;2024-01-10T08:31:07;-4.50;99.90
51035;DHT22;37062;52.546;13.230;2024-01-10T08:33:36;-4.50;99.90
51035;DHT22;37062;52.546;13.230;2024-01-10T08:36:08;-4.40;99.90
51035;DHT22;37062;52.546;13.230;2024-01-10T08:38:38;-4.40;99.90
51035;DHT22;37062;52.546;13.230;2024-01-10T08:41:12;-4.20;99.90
51035;DHT22;37062;52.546;13.230;2024-01-10T08:43:40;-4.00;99.90
51035;DHT22;37062;52.546;13.230;2024-01-10T08:46:09;-3.90;99.90
51035;DHT22;37062;52.546;13.230;2024-01-10T08:48:40;-3.70;99.90
51035;DHT22;37062;52.546;13.230;2024-01-10T08:51:09;-3.60;99.90
51035;DHT22;37062;52.546;13.230;2024-01-10T08:53:38;-3.60;99.90
51035;DHT22;37062;52.546;13.230;2024-01-10T08:56:09;-3.60;99.90
51035;DHT22;37062;52.546;13.230;2024-01-10T08:58:38;-3.70;99.90
51035;DHT22;37062;52.546;13.230;2024-01-10T09:01:07;-3.80;99.90
51035;DHT22;37062;52.546;13.230;2024-01-10T09:03:35;-3.60;99.90
51035;DHT22;37062;52.546;13.230;2024-01-10T09:06:05;-3.70;99.90
51035;DHT22;37062;52.546;13.230;2024-01-10T09:08:38;-3.70;99.90
51035;DHT22;37062;52.546;13.230;2024-01-10T09:11:10;-3.80;99.90
51035;DHT22;37062;52.546;13.230;2024-01-10T09:13:41;-3.70;99.90
51035;DHT22;37062;52.546;13.230;2024-01-10T09:16:12;-3.40;99.90
51035;DHT22;37062;52.546;13.230;2024-01-10T09:18:40;-3.10;99.90
51035;DHT22;37062;52.546;13.230;2024-01-10T09:21:09;-2.90;99.90
51035;DHT22;37062;52.546;13.230;2024-01-10T09:23:37;-2.80;99.90
51035;DHT22;37062;52.546;13.230;2024-01-10T09:26:08;-2.60;99.90
51035;DHT22;37062;52.546;13.230;2024-01-10T09:28:37;-2.50;99.90
51035;DHT22;37062;52.546;13.230;2024-01-10T09:31:10;-2.30;99.90
51035;DHT22;37062;52.546;13.230;2024-01-10T09:33:38;-2.40;99.90
51035;DHT22;37062;52.546;13.230;2024-01-10T09:36:06;-2.40;99.90
51035;DHT22;37062;52.546;13.230;2024-01-10T09:38:35;-2.30;99.90
51035;DHT22;37062;52.546;13.230;2024-01-10T09:41:04;-2.20;99.90
51035;DHT22;37062;52.546;13.230;2024-01-10T09:43:37;-2.50;99.90
51035;DHT22;37062;52.546;13.230;2024-01-10T09:46:07;-2.60;99.90
51035;DHT22;37062;52.546;13.230;2024-01-10T09:48:37;-2.50;99.90
51035;DHT22;37062;52.546;13.230;2024-01-10T09:51:05;-2.30;99.90
51035;DHT22;37062;52.546;13.230;2024-01-10T09:53:35;-2.20;99.90
51035;DHT22;37062;52.546;13.230;2024-01-10T09:56:08;-2.10;99.90
51035;DHT22;37062;52.546;13.230;2024-01-10T09:58:38;-2.00;99.90
51035;DHT22;37062;52.546;13.230;2024-01-10T10:01:08;-1.90;99.90
51035;DHT22;37062;52.546;13.230;2024-01-10T10:03:37;-2.10;99.90
51035;DHT22;37062;52.546;13.230;2024-01-10T10:06:07;-2.10;99.90
51035;DHT22;37062;52.546;13.230;2024-01-10T10:08:40;-2.10;99.90
51035;DHT22;37062;52.546;13.230;2024-01-10T10:11:12;-2.20;99.90
51035;DHT22;37062;52.546;13.230;2024-01-10T10:13:42;-2.30;99.90
51035;DHT22;37062;52.546;13.230;2024-01-10T10:16:10;-2.30;99.90
51035;DHT22;37062;52.546;13.230;2024-01-10T10:18:40;-2.40;99.90
51035;DHT22;37062;52.546;13.230;2024-01-10T10:21:11;-2.40;99.90
51035;DHT22;37062;52.546;13.230;2024-01-10T10:23:41;-2.40;99.90
51035;DHT22;37062;52.546;13.230;2024-01-10T10:26:11;-2.40;99.90
51035;DHT22;37062;52.546;13.230;2024-01-10T10:28:42;-2.20;99.90
51035;DHT22;37062;52.546;13.230;2024-01-10T10:31:11;-2.30;99.90
51035;DHT22;37062;52.546;13.230;2024-01-10T10:33:39;-2.30;99.90
51035;DHT22;37062;52.546;13.230;2024-01-10T10:36:08;-2.20;99.90
51035;DHT22;37062;52.546;13.230;2024-01-10T10:38:37;-2.00;99.90
51035;DHT22;37062;52.546;13.230;2024-01-10T10:41:06;-2.00;99.90
51035;DHT22;37062;52.546;13.230;2024-01-10T10:43:39;-1.80;99.90
51035;DHT22;37062;52.546;13.230;2024-01-10T10:46:10;-1.90;99.90
51035;DHT22;37062;52.546;13.230;2024-01-10T10:48:40;-2.00;99.90
51035;DHT22;37062;52.546;13.230;2024-01-10T10:51:11;-1.90;99.90
51035;DHT22;37062;52.546;13.230;2024-01-10T10:53:43;-1.70;99.90
51035;DHT22;37062;52.546;13.230;2024-01-10T10:56:12;-1.70;99.90
51035;DHT22;37062;52.546;13.230;2024-01-10T10:58:42;-1.60;99.90
51035;DHT22;37062;52.546;13.230;2024-01-10T11:01:13;-1.50;99.90
51035;DHT22;37062;52.546;13.230;2024-01-10T11:03:42;-1.50;99.90
51035;DHT22;37062;52.546;13.230;2024-01-10T11:06:11;-1.50;99.90
51035;DHT22;37062;52.546;13.230;2024-01-10T11:08:43;-1.40;99.90
51035;DHT22;37062;52.546;13.230;2024-01-10T11:11:20;-1.30;99.90
51035;DHT22;37062;52.546;13.230;2024-01-10T11:14:06;-1.30;99.90
51035;DHT22;37062;52.546;13.230;2024-01-10T11:17:10;-1.30;99.90
51035;DHT22;37062;52.546;13.230;2024-01-10T11:20:10;-1.20;99.90
51035;DHT22;37062;52.546;13.230;2024-01-10T11:23:12;-1.10;99.90
51035;DHT22;37062;52.546;13.230;2024-01-10T11:25:43;-1.20;99.90
51035;DHT22;37062;52.546;13.230;2024-01-10T11:28:12;-1.20;99.90
51035;DHT22;37062;52.546;13.230;2024-01-10T11:30:49;-1.30;99.90
51035;DHT22;37062;52.546;13.230;2024-01-10T11:33:22;-1.30;99.90
51035;DHT22;37062;52.546;13.230;2024-01-10T11:36:14;-1.00;99.90
51035;DHT22;37062;52.546;13.230;2024-01-10T11:38:45;-0.80;99.90
51035;DHT22;37062;52.546;13.230;2024-01-10T11:41:21;-0.70;99.90
51035;DHT22;37062;52.546;13.230;2024-01-10T11:44:26;-0.70;99.90
51035;DHT22;37062;52.546;13.230;2024-01-10T11:46:56;-0.60;99.90
51035;DHT22;37062;52.546;13.230;2024-01-10T11:49:26;-0.60;99.90
51035;DHT22;37062;52.546;13.230;2024-01-10T11:51:56;-0.50;99.90
51035;DHT22;37062;52.546;13.230;2024-01-10T11:54:38;-0.50;99.90
51035;DHT22;37062;52.546;13.230;2024-01-10T11:57:16;-0.50;99.90
51035;DHT22;37062;52.546;13.230;2024-01-10T11:59:47;-0.50;99.90
51035;DHT22;37062;52.546;13.230;2024-01-10T12:02:15;-0.60;99.90
51035;DHT22;37062;52.546;13.230;2024-01-10T12:04:46;-0.80;99.90
51035;DHT22;37062;52.546;13.230;2024-01-10T12:07:16;-0.80;99.90
51035;DHT22;37062;52.546;13.230;2024-01-10T12:09:47;-0.60;99.90
51035;DHT22;37062;52.546;13.230;2024-01-10T12:12:15;-0.60;99.90
51035;DHT22;37062;52.546;13.230;2024-01-10T12:14:44;-0.60;99.90
51035;DHT22;37062;52.546;13.230;2024-01-10T12:17:13;-0.50;99.90
51035;DHT22;37062;52.546;13.230;2024-01-10T12:19:42;-0.40;99.90
51035;DHT22;37062;52.546;13.230;2024-01-10T12:22:16;-0.50;99.90
51035;DHT22;37062;52.546;13.230;2024-01-10T12:24:47;-0.50;99.90
51035;DHT22;37062;52.546;13.230;2024-01-10T12:27:17;-0.60;99.90
51035;DHT22;37062;52.546;13.230;2024-01-10T12:29:48;-0.60;99.90
51035;DHT22;37062;52.546;13.230;2024-01-10T12:32:18;-0.40;99.90
51035;DHT22;37062;52.546;13.230;2024-01-10T12:34:46;-0.40;99.90
51035;DHT22;37062;52.546;13.230;2024-01-10T12:37:16;-0.40;99.90
51035;DHT22;37062;52.546;13.230;2024-01-10T12:39:47;-0.40;99.90
51035;DHT22;37062;52.546;13.230;2024-01-10T12:42:15;-0.40;99.90
51035;DHT22;37062;52.546;13.230;2024-01-10T12:44:44;-0.50;99.90
51035;DHT22;37062;52.546;13.230;2024-01-10T12:47:18;-0.60;99.90
51035;DHT22;37062;52.546;13.230;2024-01-10T12:49:48;-0.40;99.90
51035;DHT22;37062;52.546;13.230;2024-01-10T12:52:18;-0.30;99.90
51035;DHT22;37062;52.546;13.230;2024-01-10T12:54:50;-0.30;99.90
51035;DHT22;37062;52.546;13.230;2024-01-10T12:57:19;-0.20;99.90
51035;DHT22;37062;52.546;13.230;2024-01-10T12:59:48;-0.10;99.90
51035;DHT22;37062;52.546;13.230;2024-01-10T13:02:16;0.00;99.90
51035;DHT22;37062;52.546;13.230;2024-01-10T13:04:45;-0.10;99.90
51035;DHT22;37062;52.546;13.230;2024-01-10T13:07:14;-0.20;99.90
51035;DHT22;37062;52.546;13.230;2024-01-10T13:09:44;-0.10;99.90
51035;DHT22;37062;52.546;13.230;2024-01-10T13:12:12;0.00;99.90
51035;DHT22;37062;52.546;13.230;2024-01-10T13:14:41;0.00;99.90
51035;DHT22;37062;52.546;13.230;2024-01-10T13:17:09;0.10;99.90
51035;DHT22;37062;52.546;13.230;2024-01-10T13:19:40;0.10;99.90
51035;DHT22;37062;52.546;13.230;2024-01-10T13:22:12;0.10;99.90
51035;DHT22;37062;52.546;13.230;2024-01-10T13:24:44;0.10;99.90
51035;DHT22;37062;52.546;13.230;2024-01-10T13:27:13;0.00;99.90
51035;DHT22;37062;52.546;13.230;2024-01-10T13:29:44;0.10;99.90
51035;DHT22;37062;52.546;13.230;2024-01-10T13:32:12;0.20;99.90
51035;DHT22;37062;52.546;13.230;2024-01-10T13:34:42;0.20;99.90
51035;DHT22;37062;52.546;13.230;2024-01-10T13:37:11;0.30;99.90
51035;DHT22;37062;52.546;13.230;2024-01-10T13:39:41;0.20;99.90
51035;DHT22;37062;52.546;13.230;2024-01-10T13:42:10;0.20;99.90
51035;DHT22;37062;52.546;13.230;2024-01-10T13:44:39;0.20;99.90
51035;DHT22;37062;52.546;13.230;2024-01-10T13:47:08;0.10;99.90
51035;DHT22;37062;52.546;13.230;2024-01-10T13:49:36;0.00;99.90
51035;DHT22;37062;52.546;13.230;2024-01-10T13:52:05;-0.10;99.90
51035;DHT22;37062;52.546;13.230;2024-01-10T13:54:33;0.10;99.90
51035;DHT22;37062;52.546;13.230;2024-01-10T13:57:03;0.20;99.90
51035;DHT22;37062;52.546;13.230;2024-01-10T13:59:33;0.20;99.90
51035;DHT22;37062;52.546;13.230;2024-01-10T14:02:01;0.10;99.90
51035;DHT22;37062;52.546;13.230;2024-01-10T14:04:30;0.00;99.90
51035;DHT22;37062;52.546;13.230;2024-01-10T14:06:58;0.00;99.90
51035;DHT22;37062;52.546;13.230;2024-01-10T14:09:26;0.10;99.90
51035;DHT22;37062;52.546;13.230;2024-01-10T14:11:55;0.20;99.90
51035;DHT22;37062;52.546;13.230;2024-01-10T14:14:23;0.30;99.90
51035;DHT22;37062;52.546;13.230;2024-01-10T14:16:54;0.30;99.90
51035;DHT22;37062;52.546;13.230;2024-01-10T14:19:22;0.40;99.90
51035;DHT22;37062;52.546;13.230;2024-01-10T14:21:50;0.40;99.90
51035;DHT22;37062;52.546;13.230;2024-01-10T14:24:18;0.40;99.90
51035;DHT22;37062;52.546;13.230;2024-01-10T14:26:47;0.40;99.90
51035;DHT22;37062;52.546;13.230;2024-01-10T14:29:15;0.30;99.90
51035;DHT22;37062;52.546;13.230;2024-01-10T14:31:43;0.30;99.90
51035;DHT22;37062;52.546;13.230;2024-01-10T14:34:33;0.30;99.90
51035;DHT22;37062;52.546;13.230;2024-01-10T14:37:01;0.20;99.90
51035;DHT22;37062;52.546;13.230;2024-01-10T14:39:29;0.20;99.90
51035;DHT22;37062;52.546;13.230;2024-01-10T14:42:01;0.20;99.90
51035;DHT22;37062;52.546;13.230;2024-01-10T14:44:30;0.20;99.90
51035;DHT22;37062;52.546;13.230;2024-01-10T14:46:58;0.20;99.90
51035;DHT22;37062;52.546;13.230;2024-01-10T14:49:37;0.20;99.90
51035;DHT22;37062;52.546;13.230;2024-01-10T14:52:06;0.20;99.90
51035;DHT22;37062;52.546;13.230;2024-01-10T14:54:34;0.20;99.90
51035;DHT22;37062;52.546;13.230;2024-01-10T14:57:03;0.10;99.90
51035;DHT22;37062;52.546;13.230;2024-01-10T14:59:31;0.00;99.90
51035;DHT22;37062;52.546;13.230;2024-01-10T15:02:12;0.00;99.90
51035;DHT22;37062;52.546;13.230;2024-01-10T15:04:41;0.10;99.90
51035;DHT22;37062;52.546;13.230;2024-01-10T15:07:11;0.00;99.90
51035;DHT22;37062;52.546;13.230;2024-01-10T15:09:42;0.00;99.90
51035;DHT22;37062;52.546;13.230;2024-01-10T15:12:11;0.10;99.90
51035;DHT22;37062;52.546;13.230;2024-01-10T15:14:40;0.10;99.90
51035;DHT22;37062;52.546;13.230;2024-01-10T15:17:09;0.00;99.90
51035;DHT22;37062;52.546;13.230;2024-01-10T15:19:41;-0.10;99.90
51035;DHT22;37062;52.546;13.230;2024-01-10T15:22:11;-0.10;99.90
51035;DHT22;37062;52.546;13.230;2024-01-10T15:24:41;-0.10;99.90
51035;DHT22;37062;52.546;13.230;2024-01-10T15:27:10;-0.10;99.90
51035;DHT22;37062;52.546;13.230;2024-01-10T15:29:39;-0.20;99.90
51035;DHT22;37062;52.546;13.230;2024-01-10T15:32:08;-0.20;99.90
51035;DHT22;37062;52.546;13.230;2024-01-10T15:34:37;-0.30;99.90